sensor_id;sensor_type;location;lat;lon;timestamp;pressure;altitude;pressure_sealevel;temperature;humidity
83633;BME280;73595;53.084;6.696;2024-02-26T00:01:21;100348.00;;;2.12;98.51
83633;BME280;73595;53.084;6.696;2024-02-26T00:03:48;100361.28;;;2.21;98.06
83633;BME280;73595;53.084;6.696;2024-02-26T00:06:15;100354.72;;;2.26;97.73
83633;BME280;73595;53.084;6.696;2024-02-26T00:08:44;100363.69;;;2.33;98.53
83633;BME280;73595;53.084;6.696;2024-02-26T00:11:10;100367.78;;;2.47;99.21
83633;BME280;73595;53.084;6.696;2024-02-26T00:13:36;100369.69;;;2.45;99.13
83633;BME280;73595;53.084;6.696;2024-02-26T00:16:03;100361.53;;;2.38;99.20
83633;BME280;73595;53.084;6.696;2024-02-26T00:18:33;100331.75;;;2.30;99.34
83633;BME280;73595;53.084;6.696;2024-02-26T00:21:00;100357.31;;;2.47;99.98
83633;BME280;73595;53.084;6.696;2024-02-26T00:23:30;100329.13;;;2.30;99.79
83633;BME280;73595;53.084;6.696;2024-02-26T00:25:57;100320.47;;;2.29;99.93
83633;BME280;73595;53.084;6.696;2024-02-26T00:28:32;100348.22;;;2.51;100.00
83633;BME280;73595;53.084;6.696;2024-02-26T00:30:58;100358.38;;;2.65;100.00
83633;BME280;73595;53.084;6.696;2024-02-26T00:33:29;100360.84;;;2.67;100.00
83633;BME280;73595;53.084;6.696;2024-02-26T00:35:56;100366.53;;;2.72;100.00
83633;BME280;73595;53.084;6.696;2024-02-26T00:38:23;100355.31;;;2.60;100.00
83633;BME280;73595;53.084;6.696;2024-02-26T00:40:51;100360.88;;;2.77;100.00
83633;BME280;73595;53.084;6.696;2024-02-26T00:43:16;100375.38;;;2.81;100.00
83633;BME280;73595;53.084;6.696;2024-02-26T00:45:50;100361.16;;;2.74;100.00
83633;BME280;73595;53.084;6.696;2024-02-26T00:48:23;100363.63;;;2.75;100.00
83633;BME280;73595;53.084;6.696;2024-02-26T00:50:51;100360.19;;;2.75;100.00
83633;BME280;73595;53.084;6.696;2024-02-26T00:53:17;100313.00;;;2.46;100.00
83633;BME280;73595;53.084;6.696;2024-02-26T00:55:47;100348.47;;;2.69;100.00
83633;BME280;73595;53.084;6.696;2024-02-26T00:58:17;100341.44;;;2.69;100.00
83633;BME280;73595;53.084;6.696;2024-02-26T01:00:44;100343.22;;;2.69;100.00
83633;BME280;73595;53.084;6.696;2024-02-26T01:03:17;100350.56;;;2.75;100.00
83633;BME280;73595;53.084;6.696;2024-02-26T01:05:43;100360.78;;;2.78;100.00
83633;BME280;73595;53.084;6.696;2024-02-26T01:08:09;100223.84;;;1.87;100.00
83633;BME280;73595;53.084;6.696;2024-02-26T01:10:34;100390.81;;;2.84;100.00
83633;BME280;73595;53.084;6.696;2024-02-26T01:13:00;100376.16;;;2.71;100.00
83633;BME280;73595;53.084;6.696;2024-02-26T01:15:27;100387.91;;;2.77;100.00
83633;BME280;73595;53.084;6.696;2024-02-26T01:17:55;100373.09;;;2.66;100.00
83633;BME280;73595;53.084;6.696;2024-02-26T01:20:22;100379.84;;;2.69;100.00
83633;BME280;73595;53.084;6.696;2024-02-26T01:22:49;100380.78;;;2.58;100.00
83633;BME280;73595;53.084;6.696;2024-02-26T01:25:15;100391.84;;;2.71;100.00
83633;BME280;73595;53.084;6.696;2024-02-26T01:27:45;100357.19;;;2.49;100.00
83633;BME280;73595;53.084;6.696;2024-02-26T01:30:12;100408.50;;;2.70;100.00
83633;BME280;73595;53.084;6.696;2024-02-26T01:32:39;100341.97;;;2.33;100.00
83633;BME280;73595;53.084;6.696;2024-02-26T01:35:12;100397.84;;;2.62;100.00
83633;BME280;73595;53.084;6.696;2024-02-26T01:37:38;100381.03;;;2.55;100.00
83633;BME280;73595;53.084;6.696;2024-02-26T01:40:04;100396.88;;;2.63;100.00
83633;BME280;73595;53.084;6.696;2024-02-26T01:42:32;100393.97;;;2.57;100.00
83633;BME280;73595;53.084;6.696;2024-02-26T01:45:03;100379.69;;;2.40;100.00
83633;BME280;73595;53.084;6.696;2024-02-26T01:47:29;100407.75;;;2.59;100.00
83633;BME280;73595;53.084;6.696;2024-02-26T01:49:58;100398.81;;;2.61;100.00
83633;BME280;73595;53.084;6.696;2024-02-26T01:52:26;100394.28;;;2.63;100.00
83633;BME280;73595;53.084;6.696;2024-02-26T01:54:51;100353.44;;;2.41;100.00
83633;BME280;73595;53.084;6.696;2024-02-26T01:57:17;100374.44;;;2.61;100.00
83633;BME280;73595;53.084;6.696;2024-02-26T01:59:51;100387.69;;;2.69;100.00
83633;BME280;73595;53.084;6.696;2024-02-26T02:02:24;100264.47;;;2.01;100.00
83633;BME280;73595;53.084;6.696;2024-02-26T02:04:51;100388.97;;;2.75;100.00
83633;BME280;73595;53.084;6.696;2024-02-26T02:07:18;100361.22;;;2.62;100.00
83633;BME280;73595;53.084;6.696;2024-02-26T02:09:50;100410.13;;;2.92;100.00
83633;BME280;73595;53.084;6.696;2024-02-26T02:12:17;100390.03;;;2.93;100.00
83633;BME280;73595;53.084;6.696;2024-02-26T02:14:49;100296.19;;;2.38;100.00
83633;BME280;73595;53.084;6.696;2024-02-26T02:17:17;100351.13;;;2.79;100.00
83633;BME280;73595;53.084;6.696;2024-02-26T02:19:43;100390.72;;;2.95;100.00
83633;BME280;73595;53.084;6.696;2024-02-26T02:22:12;100312.91;;;2.57;100.00
83633;BME280;73595;53.084;6.696;2024-02-26T02:24:41;100391.00;;;3.02;100.00
83633;BME280;73595;53.084;6.696;2024-02-26T02:27:08;100397.50;;;3.07;100.00
83633;BME280;73595;53.084;6.696;2024-02-26T02:29:36;100396.28;;;3.11;100.00
83633;BME280;73595;53.084;6.696;2024-02-26T02:32:05;100397.66;;;3.06;100.00
83633;BME280;73595;53.084;6.696;2024-02-26T02:34:33;100403.56;;;3.08;100.00
83633;BME280;73595;53.084;6.696;2024-02-26T02:37:01;100350.13;;;2.70;100.00
83633;BME280;73595;53.084;6.696;2024-02-26T02:39:27;100396.91;;;2.94;100.00
83633;BME280;73595;53.084;6.696;2024-02-26T02:41:55;100285.94;;;2.26;100.00
83633;BME280;73595;53.084;6.696;2024-02-26T02:44:43;100396.78;;;2.95;100.00
83633;BME280;73595;53.084;6.696;2024-02-26T02:47:15;100391.50;;;2.86;100.00
83633;BME280;73595;53.084;6.696;2024-02-26T02:49:44;100417.59;;;2.97;100.00
83633;BME280;73595;53.084;6.696;2024-02-26T02:52:10;100419.25;;;2.98;100.00
83633;BME280;73595;53.084;6.696;2024-02-26T02:54:37;100364.28;;;2.67;100.00
83633;BME280;73595;53.084;6.696;2024-02-26T02:57:06;100408.72;;;2.88;100.00
83633;BME280;73595;53.084;6.696;2024-02-26T02:59:35;100386.34;;;2.75;99.87
83633;BME280;73595;53.084;6.696;2024-02-26T03:02:03;100441.56;;;3.02;99.71
83633;BME280;73595;53.084;6.696;2024-02-26T03:04:33;100441.66;;;2.91;99.98
83633;BME280;73595;53.084;6.696;2024-02-26T03:06:59;100447.59;;;2.93;99.82
83633;BME280;73595;53.084;6.696;2024-02-26T03:09:25;100362.09;;;2.42;99.92
83633;BME280;73595;53.084;6.696;2024-02-26T03:11:53;100432.25;;;2.88;99.78
83633;BME280;73595;53.084;6.696;2024-02-26T03:14:24;100459.19;;;3.00;99.66
83633;BME280;73595;53.084;6.696;2024-02-26T03:16:54;100455.16;;;2.96;99.70
83633;BME280;73595;53.084;6.696;2024-02-26T03:19:21;100463.88;;;2.96;99.69
83633;BME280;73595;53.084;6.696;2024-02-26T03:21:49;100442.94;;;2.76;99.81
83633;BME280;73595;53.084;6.696;2024-02-26T03:24:19;100467.41;;;2.95;99.55
83633;BME280;73595;53.084;6.696;2024-02-26T03:26:50;100362.28;;;2.29;99.62
83633;BME280;73595;53.084;6.696;2024-02-26T03:29:20;100430.66;;;2.66;99.24
83633;BME280;73595;53.084;6.696;2024-02-26T03:31:57;100448.31;;;2.74;99.62
83633;BME280;73595;53.084;6.696;2024-02-26T03:34:24;100472.78;;;2.94;99.67
83633;BME280;73595;53.084;6.696;2024-02-26T03:36:54;100452.75;;;2.83;99.61
83633;BME280;73595;53.084;6.696;2024-02-26T03:39:31;100384.72;;;2.32;99.64
83633;BME280;73595;53.084;6.696;2024-02-26T03:41:58;100448.56;;;2.71;99.64
83633;BME280;73595;53.084;6.696;2024-02-26T03:44:27;100463.50;;;2.80;99.56
83633;BME280;73595;53.084;6.696;2024-02-26T03:46:55;100480.31;;;2.87;99.14
83633;BME280;73595;53.084;6.696;2024-02-26T03:49:22;100474.22;;;2.77;99.52
83633;BME280;73595;53.084;6.696;2024-02-26T03:52:03;100487.72;;;2.82;99.36
83633;BME280;73595;53.084;6.696;2024-02-26T03:54:31;100466.06;;;2.70;99.20
83633;BME280;73595;53.084;6.696;2024-02-26T03:56:57;100474.59;;;2.72;98.68
83633;BME280;73595;53.084;6.696;2024-02-26T03:59:26;100455.06;;;2.56;98.55
83633;BME280;73595;53.084;6.696;2024-02-26T04:01:51;100490.03;;;2.76;98.73
83633;BME280;73595;53.084;6.696;2024-02-26T04:04:18;100478.53;;;2.67;98.52
83633;BME280;73595;53.084;6.696;2024-02-26T04:06:45;100497.13;;;2.85;98.29
83633;BME280;73595;53.084;6.696;2024-02-26T04:09:13;100506.63;;;2.86;98.69
83633;BME280;73595;53.084;6.696;2024-02-26T04:11:40;100517.09;;;2.86;98.32
83633;BME280;73595;53.084;6.696;2024-02-26T04:14:10;100502.13;;;2.77;98.46
83633;BME280;73595;53.084;6.696;2024-02-26T04:16:38;100416.28;;;2.19;98.04
83633;BME280;73595;53.084;6.696;2024-02-26T04:19:06;100527.09;;;2.81;98.32
83633;BME280;73595;53.084;6.696;2024-02-26T04:21:32;100518.56;;;2.79;98.37
83633;BME280;73595;53.084;6.696;2024-02-26T04:23:58;100512.41;;;2.68;98.43
83633;BME280;73595;53.084;6.696;2024-02-26T04:26:27;100533.16;;;2.81;98.79
83633;BME280;73595;53.084;6.696;2024-02-26T04:28:54;100506.94;;;2.71;98.65
83633;BME280;73595;53.084;6.696;2024-02-26T04:31:21;100515.50;;;2.74;98.35
83633;BME280;73595;53.084;6.696;2024-02-26T04:33:48;100532.09;;;2.84;98.45
83633;BME280;73595;53.084;6.696;2024-02-26T04:36:26;100532.09;;;2.84;98.42
83633;BME280;73595;53.084;6.696;2024-02-26T04:38:56;100463.88;;;2.34;98.23
83633;BME280;73595;53.084;6.696;2024-02-26T04:41:23;100538.25;;;2.83;98.29
83633;BME280;73595;53.084;6.696;2024-02-26T04:43:52;100542.44;;;2.85;98.21
83633;BME280;73595;53.084;6.696;2024-02-26T04:46:23;100548.72;;;2.83;98.13
83633;BME280;73595;53.084;6.696;2024-02-26T04:49:09;100532.84;;;2.75;98.08
83633;BME280;73595;53.084;6.696;2024-02-26T04:51:44;100523.97;;;2.66;97.97
83633;BME280;73595;53.084;6.696;2024-02-26T04:54:11;100529.41;;;2.74;97.73
83633;BME280;73595;53.084;6.696;2024-02-26T04:56:59;100558.69;;;2.89;97.59
83633;BME280;73595;53.084;6.696;2024-02-26T04:59:27;100547.78;;;2.84;97.40
83633;BME280;73595;53.084;6.696;2024-02-26T05:01:58;100550.13;;;2.87;97.21
83633;BME280;73595;53.084;6.696;2024-02-26T05:04:38;100505.72;;;2.55;97.04
83633;BME280;73595;53.084;6.696;2024-02-26T05:07:28;100481.06;;;2.36;96.93
83633;BME280;73595;53.084;6.696;2024-02-26T05:10:17;100520.75;;;2.62;96.44
83633;BME280;73595;53.084;6.696;2024-02-26T05:12:44;100576.06;;;2.90;96.79
83633;BME280;73595;53.084;6.696;2024-02-26T05:15:14;100482.72;;;2.37;96.46
83633;BME280;73595;53.084;6.696;2024-02-26T05:17:44;100539.53;;;2.67;96.50
83633;BME280;73595;53.084;6.696;2024-02-26T05:20:10;100546.88;;;2.74;96.52
83633;BME280;73595;53.084;6.696;2024-02-26T05:22:40;100561.56;;;2.86;96.38
83633;BME280;73595;53.084;6.696;2024-02-26T05:25:07;100515.47;;;2.53;96.30
83633;BME280;73595;53.084;6.696;2024-02-26T05:27:38;100579.50;;;2.90;96.33
83633;BME280;73595;53.084;6.696;2024-02-26T05:30:05;100575.22;;;2.89;96.45
83633;BME280;73595;53.084;6.696;2024-02-26T05:32:33;100561.25;;;2.79;96.64
83633;BME280;73595;53.084;6.696;2024-02-26T05:35:02;100575.34;;;2.88;96.41
83633;BME280;73595;53.084;6.696;2024-02-26T05:37:31;100469.00;;;2.24;95.90
83633;BME280;73595;53.084;6.696;2024-02-26T05:39:56;100591.97;;;2.98;96.25
83633;BME280;73595;53.084;6.696;2024-02-26T05:42:31;100594.91;;;3.05;96.23
83633;BME280;73595;53.084;6.696;2024-02-26T05:44:58;100531.94;;;2.64;96.12
83633;BME280;73595;53.084;6.696;2024-02-26T05:47:25;100584.47;;;2.93;96.32
83633;BME280;73595;53.084;6.696;2024-02-26T05:49:54;100574.50;;;2.87;95.83
83633;BME280;73595;53.084;6.696;2024-02-26T05:52:20;100551.41;;;2.71;95.90
83633;BME280;73595;53.084;6.696;2024-02-26T05:54:53;100614.75;;;3.07;95.80
83633;BME280;73595;53.084;6.696;2024-02-26T05:57:43;100610.47;;;3.06;95.48
83633;BME280;73595;53.084;6.696;2024-02-26T06:00:08;100555.00;;;2.70;95.61
83633;BME280;73595;53.084;6.696;2024-02-26T06:02:39;100617.50;;;3.06;96.06
83633;BME280;73595;53.084;6.696;2024-02-26T06:05:24;100606.94;;;2.96;95.83
83633;BME280;73595;53.084;6.696;2024-02-26T06:07:58;100621.44;;;3.00;95.69
83633;BME280;73595;53.084;6.696;2024-02-26T06:10:27;100627.00;;;3.07;95.81
83633;BME280;73595;53.084;6.696;2024-02-26T06:12:53;100619.66;;;3.01;95.83
83633;BME280;73595;53.084;6.696;2024-02-26T06:15:18;100579.56;;;2.79;95.65
83633;BME280;73595;53.084;6.696;2024-02-26T06:17:44;100647.56;;;3.11;95.59
83633;BME280;73595;53.084;6.696;2024-02-26T06:20:09;100617.06;;;2.89;95.48
83633;BME280;73595;53.084;6.696;2024-02-26T06:22:39;100633.06;;;3.07;95.59
83633;BME280;73595;53.084;6.696;2024-02-26T06:25:06;100627.63;;;2.99;95.72
83633;BME280;73595;53.084;6.696;2024-02-26T06:27:32;100599.41;;;2.82;95.80
83633;BME280;73595;53.084;6.696;2024-02-26T06:30:05;100554.94;;;2.50;95.56
83633;BME280;73595;53.084;6.696;2024-02-26T06:32:40;100544.00;;;2.44;95.25
83633;BME280;73595;53.084;6.696;2024-02-26T06:35:29;100649.34;;;3.11;95.26
83633;BME280;73595;53.084;6.696;2024-02-26T06:38:02;100640.22;;;3.05;95.37
83633;BME280;73595;53.084;6.696;2024-02-26T06:40:49;100658.28;;;3.08;95.18
83633;BME280;73595;53.084;6.696;2024-02-26T06:43:14;100649.66;;;2.96;95.56
83633;BME280;73595;53.084;6.696;2024-02-26T06:45:41;100663.06;;;3.03;95.45
83633;BME280;73595;53.084;6.696;2024-02-26T06:48:09;100671.16;;;3.00;95.55
83633;BME280;73595;53.084;6.696;2024-02-26T06:50:50;100636.63;;;2.85;95.48
83633;BME280;73595;53.084;6.696;2024-02-26T06:53:40;100652.78;;;2.90;95.14
83633;BME280;73595;53.084;6.696;2024-02-26T06:56:20;100662.41;;;2.90;95.57
83633;BME280;73595;53.084;6.696;2024-02-26T06:59:02;100653.00;;;2.87;95.32
83633;BME280;73595;53.084;6.696;2024-02-26T07:01:55;100568.16;;;2.37;95.29
83633;BME280;73595;53.084;6.696;2024-02-26T07:04:22;100639.13;;;2.76;95.24
83633;BME280;73595;53.084;6.696;2024-02-26T07:06:49;100684.84;;;3.04;95.48
83633;BME280;73595;53.084;6.696;2024-02-26T07:09:17;100669.03;;;2.94;95.38
83633;BME280;73595;53.084;6.696;2024-02-26T07:11:44;100703.38;;;3.12;95.16
83633;BME280;73595;53.084;6.696;2024-02-26T07:14:15;100667.69;;;2.79;95.37
83633;BME280;73595;53.084;6.696;2024-02-26T07:16:41;100706.34;;;3.07;95.50
83633;BME280;73595;53.084;6.696;2024-02-26T07:19:11;100714.56;;;3.03;95.42
83633;BME280;73595;53.084;6.696;2024-02-26T07:21:45;100624.00;;;2.47;94.92
83633;BME280;73595;53.084;6.696;2024-02-26T07:24:12;100707.34;;;2.95;95.18
83633;BME280;73595;53.084;6.696;2024-02-26T07:26:38;100708.06;;;2.97;95.37
83633;BME280;73595;53.084;6.696;2024-02-26T07:29:11;100735.25;;;3.17;95.03
83633;BME280;73595;53.084;6.696;2024-02-26T07:31:47;100738.56;;;3.19;94.65
83633;BME280;73595;53.084;6.696;2024-02-26T07:34:33;100710.19;;;3.03;95.28
83633;BME280;73595;53.084;6.696;2024-02-26T07:37:26;100742.13;;;3.18;94.98
83633;BME280;73595;53.084;6.696;2024-02-26T07:39:54;100688.81;;;2.87;94.72
83633;BME280;73595;53.084;6.696;2024-02-26T07:42:30;100714.78;;;3.11;94.72
83633;BME280;73595;53.084;6.696;2024-02-26T07:44:56;100616.63;;;2.52;94.73
83633;BME280;73595;53.084;6.696;2024-02-26T07:47:39;100699.81;;;3.02;94.79
83633;BME280;73595;53.084;6.696;2024-02-26T07:50:17;100721.31;;;3.16;94.41
83633;BME280;73595;53.084;6.696;2024-02-26T07:52:50;100731.28;;;3.22;94.50
83633;BME280;73595;53.084;6.696;2024-02-26T07:55:38;100736.03;;;3.29;94.36
83633;BME280;73595;53.084;6.696;2024-02-26T07:58:04;100742.09;;;3.29;94.63
83633;BME280;73595;53.084;6.696;2024-02-26T08:00:35;100686.38;;;3.06;94.31
83633;BME280;73595;53.084;6.696;2024-02-26T08:03:22;100723.03;;;3.27;94.58
83633;BME280;73595;53.084;6.696;2024-02-26T08:05:50;100713.53;;;3.26;94.38
83633;BME280;73595;53.084;6.696;2024-02-26T08:08:16;100727.91;;;3.32;94.59
83633;BME280;73595;53.084;6.696;2024-02-26T08:10:43;100532.00;;;2.10;94.19
83633;BME280;73595;53.084;6.696;2024-02-26T08:13:09;100734.81;;;3.33;94.60
83633;BME280;73595;53.084;6.696;2024-02-26T08:15:40;100733.75;;;3.35;94.89
83633;BME280;73595;53.084;6.696;2024-02-26T08:18:11;100745.63;;;3.39;94.75
83633;BME280;73595;53.084;6.696;2024-02-26T08:20:46;100760.69;;;3.47;94.60
83633;BME280;73595;53.084;6.696;2024-02-26T08:23:15;100717.47;;;3.20;94.52
83633;BME280;73595;53.084;6.696;2024-02-26T08:25:42;100742.16;;;3.39;94.51
83633;BME280;73595;53.084;6.696;2024-02-26T08:28:09;100758.47;;;3.42;94.54
83633;BME280;73595;53.084;6.696;2024-02-26T08:30:41;100741.97;;;3.31;94.63
83633;BME280;73595;53.084;6.696;2024-02-26T08:33:33;100750.72;;;3.41;94.33
83633;BME280;73595;53.084;6.696;2024-02-26T08:36:05;100721.97;;;3.30;94.25
83633;BME280;73595;53.084;6.696;2024-02-26T08:38:50;100766.59;;;3.60;94.21
83633;BME280;73595;53.084;6.696;2024-02-26T08:42:03;100784.69;;;3.63;94.49
83633;BME280;73595;53.084;6.696;2024-02-26T08:45:04;100747.72;;;3.45;94.18
83633;BME280;73595;53.084;6.696;2024-02-26T08:48:08;100779.91;;;3.68;94.08
83633;BME280;73595;53.084;6.696;2024-02-26T08:51:19;100778.03;;;3.59;94.16
83633;BME280;73595;53.084;6.696;2024-02-26T08:54:11;100789.94;;;3.63;93.99
83633;BME280;73595;53.084;6.696;2024-02-26T08:57:28;100801.44;;;3.72;93.79
83633;BME280;73595;53.084;6.696;2024-02-26T09:00:09;100797.34;;;3.79;93.40
83633;BME280;73595;53.084;6.696;2024-02-26T09:03:24;100808.78;;;3.78;93.43
83633;BME280;73595;53.084;6.696;2024-02-26T09:07:07;100812.84;;;3.82;93.54
83633;BME280;73595;53.084;6.696;2024-02-26T09:10:39;100812.00;;;3.82;93.50
83633;BME280;73595;53.084;6.696;2024-02-26T09:14:18;100815.09;;;3.87;92.97
83633;BME280;73595;53.084;6.696;2024-02-26T09:17:55;100824.19;;;3.92;93.32
83633;BME280;73595;53.084;6.696;2024-02-26T09:20:43;100837.81;;;3.86;92.96
83633;BME280;73595;53.084;6.696;2024-02-26T09:24:11;100799.53;;;3.74;92.76
83633;BME280;73595;53.084;6.696;2024-02-26T09:27:19;100736.22;;;3.37;92.84
83633;BME280;73595;53.084;6.696;2024-02-26T09:30:54;100832.00;;;4.03;92.62
83633;BME280;73595;53.084;6.696;2024-02-26T09:34:23;100848.88;;;4.11;92.33
83633;BME280;73595;53.084;6.696;2024-02-26T09:37:55;100794.13;;;3.87;91.95
83633;BME280;73595;53.084;6.696;2024-02-26T09:41:13;100842.81;;;4.10;91.49
83633;BME280;73595;53.084;6.696;2024-02-26T09:44:20;100832.91;;;4.14;91.91
83633;BME280;73595;53.084;6.696;2024-02-26T09:47:55;100860.63;;;4.27;91.64
83633;BME280;73595;53.084;6.696;2024-02-26T09:50:45;100863.94;;;4.29;91.75
83633;BME280;73595;53.084;6.696;2024-02-26T09:56:38;100807.41;;;3.95;91.84
83633;BME280;73595;53.084;6.696;2024-02-26T10:00:17;100828.06;;;4.09;91.32
83633;BME280;73595;53.084;6.696;2024-02-26T10:04:18;100857.03;;;4.28;90.80
83633;BME280;73595;53.084;6.696;2024-02-26T10:07:44;100882.78;;;4.44;90.58
83633;BME280;73595;53.084;6.696;2024-02-26T10:14:57;100894.84;;;4.47;90.24
83633;BME280;73595;53.084;6.696;2024-02-26T10:21:53;100888.44;;;4.40;90.30
83633;BME280;73595;53.084;6.696;2024-02-26T10:25:52;100898.31;;;4.57;89.83
83633;BME280;73595;53.084;6.696;2024-02-26T10:28:48;100820.19;;;4.09;89.11
83633;BME280;73595;53.084;6.696;2024-02-26T10:32:08;100868.22;;;4.30;89.25
83633;BME280;73595;53.084;6.696;2024-02-26T10:35:02;100848.19;;;4.29;89.31
83633;BME280;73595;53.084;6.696;2024-02-26T10:38:15;100916.38;;;4.71;89.74
83633;BME280;73595;53.084;6.696;2024-02-26T10:41:15;100919.72;;;4.73;88.72
83633;BME280;73595;53.084;6.696;2024-02-26T10:44:48;100921.88;;;4.68;88.23
83633;BME280;73595;53.084;6.696;2024-02-26T10:48:13;100823.78;;;4.08;88.20
83633;BME280;73595;53.084;6.696;2024-02-26T10:52:06;100928.84;;;4.79;87.78
83633;BME280;73595;53.084;6.696;2024-02-26T10:55:45;100911.91;;;4.62;87.52
83633;BME280;73595;53.084;6.696;2024-02-26T10:58:45;100845.94;;;4.25;88.12
83633;BME280;73595;53.084;6.696;2024-02-26T11:01:20;100902.81;;;4.66;88.95
83633;BME280;73595;53.084;6.696;2024-02-26T11:04:20;100932.69;;;4.75;88.11
83633;BME280;73595;53.084;6.696;2024-02-26T11:06:54;100923.03;;;4.75;88.45
83633;BME280;73595;53.084;6.696;2024-02-26T11:09:23;100942.97;;;4.87;88.77
83633;BME280;73595;53.084;6.696;2024-02-26T11:11:51;100912.53;;;4.75;88.72
83633;BME280;73595;53.084;6.696;2024-02-26T11:14:45;100970.38;;;4.95;88.76
83633;BME280;73595;53.084;6.696;2024-02-26T11:17:17;100943.13;;;4.86;86.62
83633;BME280;73595;53.084;6.696;2024-02-26T11:20:14;100957.97;;;4.97;86.50
83633;BME280;73595;53.084;6.696;2024-02-26T11:22:58;100956.09;;;4.87;86.60
83633;BME280;73595;53.084;6.696;2024-02-26T11:25:24;100944.59;;;4.79;86.01
83633;BME280;73595;53.084;6.696;2024-02-26T11:27:59;100901.22;;;4.54;86.22
83633;BME280;73595;53.084;6.696;2024-02-26T11:30:30;100956.09;;;4.87;85.00
83633;BME280;73595;53.084;6.696;2024-02-26T11:33:07;100976.78;;;5.02;85.61
83633;BME280;73595;53.084;6.696;2024-02-26T11:35:37;100956.28;;;4.96;85.72
83633;BME280;73595;53.084;6.696;2024-02-26T11:38:38;100910.38;;;4.59;85.08
83633;BME280;73595;53.084;6.696;2024-02-26T11:41:08;100987.06;;;5.14;85.74
83633;BME280;73595;53.084;6.696;2024-02-26T11:44:01;100983.81;;;5.22;86.14
83633;BME280;73595;53.084;6.696;2024-02-26T11:46:43;100990.97;;;5.20;85.57
83633;BME280;73595;53.084;6.696;2024-02-26T11:49:32;100984.34;;;5.16;85.01
83633;BME280;73595;53.084;6.696;2024-02-26T11:52:02;100896.16;;;4.62;85.41
83633;BME280;73595;53.084;6.696;2024-02-26T11:55:10;100983.97;;;5.30;85.69
83633;BME280;73595;53.084;6.696;2024-02-26T11:57:45;100955.00;;;5.11;85.11
83633;BME280;73595;53.084;6.696;2024-02-26T12:00:16;100951.94;;;5.06;84.89
83633;BME280;73595;53.084;6.696;2024-02-26T12:03:11;100937.38;;;5.02;85.01
83633;BME280;73595;53.084;6.696;2024-02-26T12:05:47;100983.44;;;5.36;85.33
83633;BME280;73595;53.084;6.696;2024-02-26T12:08:14;100989.00;;;5.43;85.10
83633;BME280;73595;53.084;6.696;2024-02-26T12:10:51;100920.25;;;5.28;86.35
83633;BME280;73595;53.084;6.696;2024-02-26T12:13:29;100938.94;;;5.44;85.79
83633;BME280;73595;53.084;6.696;2024-02-26T12:16:01;100939.88;;;5.34;85.01
83633;BME280;73595;53.084;6.696;2024-02-26T12:18:26;100979.78;;;5.49;84.19
83633;BME280;73595;53.084;6.696;2024-02-26T12:21:19;100922.97;;;5.17;83.60
83633;BME280;73595;53.084;6.696;2024-02-26T12:24:24;100950.00;;;5.38;84.22
83633;BME280;73595;53.084;6.696;2024-02-26T12:27:27;100961.91;;;5.42;84.09
83633;BME280;73595;53.084;6.696;2024-02-26T12:31:16;100983.66;;;5.54;84.87
83633;BME280;73595;53.084;6.696;2024-02-26T12:34:03;100951.09;;;5.36;85.15
83633;BME280;73595;53.084;6.696;2024-02-26T12:36:56;100935.41;;;5.25;85.07
83633;BME280;73595;53.084;6.696;2024-02-26T12:39:56;100974.75;;;5.46;85.24
83633;BME280;73595;53.084;6.696;2024-02-26T12:42:32;100864.97;;;4.69;84.96
83633;BME280;73595;53.084;6.696;2024-02-26T12:45:36;100886.03;;;4.78;84.71
83633;BME280;73595;53.084;6.696;2024-02-26T12:48:16;100943.81;;;4.88;84.13
83633;BME280;73595;53.084;6.696;2024-02-26T12:50:53;100989.09;;;5.32;85.37
83633;BME280;73595;53.084;6.696;2024-02-26T12:53:19;101008.84;;;5.26;85.89
83633;BME280;73595;53.084;6.696;2024-02-26T12:55:45;100990.31;;;5.28;87.64
83633;BME280;73595;53.084;6.696;2024-02-26T12:58:19;100991.09;;;5.19;86.38
83633;BME280;73595;53.084;6.696;2024-02-26T13:00:57;100969.13;;;5.20;86.01
83633;BME280;73595;53.084;6.696;2024-02-26T13:03:45;101023.16;;;5.43;86.43
83633;BME280;73595;53.084;6.696;2024-02-26T13:06:32;101028.50;;;5.32;86.90
83633;BME280;73595;53.084;6.696;2024-02-26T13:08:59;101010.38;;;5.08;86.34
83633;BME280;73595;53.084;6.696;2024-02-26T13:11:29;101024.88;;;5.23;86.59
83633;BME280;73595;53.084;6.696;2024-02-26T13:14:08;101029.69;;;5.18;86.94
83633;BME280;73595;53.084;6.696;2024-02-26T13:16:57;101055.53;;;5.02;86.25
83633;BME280;73595;53.084;6.696;2024-02-26T13:19:26;101046.16;;;4.99;86.36
83633;BME280;73595;53.084;6.696;2024-02-26T13:21:53;101024.09;;;4.70;85.96
83633;BME280;73595;53.084;6.696;2024-02-26T13:24:22;101038.78;;;4.72;86.81
83633;BME280;73595;53.084;6.696;2024-02-26T13:27:02;101014.69;;;4.67;87.24
83633;BME280;73595;53.084;6.696;2024-02-26T13:29:40;101035.69;;;4.88;87.55
83633;BME280;73595;53.084;6.696;2024-02-26T13:32:08;101059.97;;;5.01;87.60
83633;BME280;73595;53.084;6.696;2024-02-26T13:34:48;101049.66;;;4.88;87.88
83633;BME280;73595;53.084;6.696;2024-02-26T13:41:23;101055.41;;;4.82;87.26
83633;BME280;73595;53.084;6.696;2024-02-26T13:43:50;101075.66;;;4.92;87.71
83633;BME280;73595;53.084;6.696;2024-02-26T13:46:18;101033.69;;;4.59;87.87
83633;BME280;73595;53.084;6.696;2024-02-26T13:48:45;101069.50;;;4.81;87.19
83633;BME280;73595;53.084;6.696;2024-02-26T13:51:13;101081.78;;;4.81;87.37
83633;BME280;73595;53.084;6.696;2024-02-26T13:53:39;101089.81;;;4.79;86.67
83633;BME280;73595;53.084;6.696;2024-02-26T13:56:04;101088.84;;;4.80;87.19
83633;BME280;73595;53.084;6.696;2024-02-26T13:58:31;101090.91;;;4.77;86.95
83633;BME280;73595;53.084;6.696;2024-02-26T14:00:57;101081.94;;;4.79;87.69
83633;BME280;73595;53.084;6.696;2024-02-26T14:03:24;101102.22;;;4.77;87.17
83633;BME280;73595;53.084;6.696;2024-02-26T14:05:50;101116.63;;;4.83;86.68
83633;BME280;73595;53.084;6.696;2024-02-26T14:08:15;101107.25;;;4.69;87.71
83633;BME280;73595;53.084;6.696;2024-02-26T14:10:40;101097.00;;;4.66;87.68